Time;durP1;ratioP1;P1;durP2;ratioP2;P2;SDS_P1;SDS_P2;PMS_P1;PMS_P2;Temp;Humidity;BMP_temperature;BMP_pressure;BME280_temperature;BME280_humidity;BME280_pressure;Samples;Min_cycle;Max_cycle;Signal;HPM_P1;HPM_P2
2023/02/07 00:01:39;;;;;;;5.60;4.62;;;-0.20;99.90;;;;;;486501;244;27950;-76
2023/02/07 00:03:40;;;;;;;6.53;5.03;;;-0.20;99.90;;;;;;486513;244;27552;-76
2023/02/07 00:05:41;;;;;;;6.43;5.10;;;-0.10;99.90;;;;;;486498;244;27474;-76
2023/02/07 00:07:42;;;;;;;6.22;5.35;;;-0.10;99.90;;;;;;486548;244;27445;-76
2023/02/07 00:09:43;;;;;;;8.05;6.07;;;-0.10;99.90;;;;;;486530;244;27534;-77
2023/02/07 00:11:45;;;;;;;7.25;5.00;;;-0.10;99.90;;;;;;486507;244;27414;-76
2023/02/07 00:13:46;;;;;;;7.40;5.25;;;-0.10;99.90;;;;;;486503;244;27578;-76
2023/02/07 00:15:47;;;;;;;6.75;5.20;;;-0.10;99.90;;;;;;486504;244;27410;-75
2023/02/07 00:17:48;;;;;;;7.55;5.45;;;-0.10;99.90;;;;;;486528;244;27996;-75
2023/02/07 00:19:50;;;;;;;7.00;5.70;;;-0.10;99.90;;;;;;486533;244;27933;-76
2023/02/07 00:21:51;;;;;;;9.00;5.60;;;-0.20;99.90;;;;;;486490;244;29163;-76
2023/02/07 00:23:52;;;;;;;7.72;5.10;;;-0.20;99.90;;;;;;486492;244;27431;-76
2023/02/07 00:25:53;;;;;;;5.30;4.80;;;-0.20;99.90;;;;;;486480;244;27465;-76
2023/02/07 00:27:55;;;;;;;6.37;5.40;;;-0.20;99.90;;;;;;486545;244;27422;-76
2023/02/07 00:29:56;;;;;;;7.10;5.30;;;-0.20;99.90;;;;;;486522;244;27461;-76
2023/02/07 00:31:57;;;;;;;6.82;5.75;;;-0.20;99.90;;;;;;486518;244;27415;-76
2023/02/07 00:33:59;;;;;;;6.03;5.35;;;-0.20;99.90;;;;;;486489;244;27445;-76
2023/02/07 00:36:00;;;;;;;7.65;5.93;;;-0.20;99.90;;;;;;486500;244;27390;-76
2023/02/07 00:38:01;;;;;;;9.05;5.32;;;-0.20;99.90;;;;;;486529;244;27882;-76
2023/02/07 00:40:02;;;;;;;8.27;5.40;;;-0.10;99.90;;;;;;486551;244;27993;-76
2023/02/07 00:42:03;;;;;;;6.25;4.85;;;-0.10;99.90;;;;;;486513;244;27946;-76
2023/02/07 00:44:05;;;;;;;5.70;4.80;;;-0.10;99.90;;;;;;486485;244;27430;-75
2023/02/07 00:46:06;;;;;;;6.60;5.35;;;-0.10;99.90;;;;;;486511;244;27405;-75
2023/02/07 00:48:07;;;;;;;6.75;5.55;;;-0.10;99.90;;;;;;486560;244;27572;-76
2023/02/07 00:50:09;;;;;;;8.82;5.32;;;-0.10;99.90;;;;;;486550;244;27457;-76
2023/02/07 00:52:10;;;;;;;5.90;5.30;;;-0.10;99.90;;;;;;486528;244;27438;-76
2023/02/07 00:54:11;;;;;;;7.03;4.80;;;-0.10;99.90;;;;;;486504;244;27454;-75
2023/02/07 00:56:12;;;;;;;7.37;5.32;;;-0.10;99.90;;;;;;486533;244;27515;-76
2023/02/07 00:58:14;;;;;;;8.55;5.00;;;0.00;99.90;;;;;;486533;244;27949;-76
2023/02/07 01:00:15;;;;;;;7.45;5.30;;;-0.10;99.90;;;;;;486549;244;28010;-76
2023/02/07 01:02:16;;;;;;;6.37;5.37;;;-0.10;99.90;;;;;;486540;244;27869;-76
2023/02/07 01:04:17;;;;;;;6.15;4.78;;;0.00;99.90;;;;;;486479;244;27528;-76
2023/02/07 01:06:19;;;;;;;6.75;5.53;;;0.00;99.90;;;;;;486487;244;27422;-76
2023/02/07 01:08:20;;;;;;;6.43;5.80;;;-0.10;99.90;;;;;;486532;244;27410;-76
2023/02/07 01:10:23;;;;;;;7.25;5.50;;;-0.10;99.90;;;;;;486542;244;27521;-76
2023/02/07 01:12:22;;;;;;;6.35;5.47;;;-0.10;99.90;;;;;;486383;244;27438;-75
2023/02/07 01:14:24;;;;;;;6.70;5.75;;;-0.10;99.90;;;;;;486470;244;27469;-76
2023/02/07 01:16:25;;;;;;;8.10;6.18;;;-0.10;99.90;;;;;;486496;244;27482;-76
2023/02/07 01:18:26;;;;;;;8.20;5.80;;;-0.10;99.90;;;;;;486516;244;27899;-76
2023/02/07 01:20:27;;;;;;;6.90;5.53;;;-0.10;99.90;;;;;;486545;244;27966;-76
2023/02/07 01:22:29;;;;;;;7.18;5.35;;;-0.10;99.90;;;;;;486509;244;27853;-76
2023/02/07 01:24:30;;;;;;;7.80;5.80;;;-0.10;99.90;;;;;;486482;244;27439;-76
2023/02/07 01:26:31;;;;;;;7.07;5.32;;;-0.10;99.90;;;;;;486490;244;27541;-76
2023/02/07 01:28:32;;;;;;;6.28;5.55;;;-0.10;99.90;;;;;;486530;244;27585;-76
2023/02/07 01:30:34;;;;;;;7.97;5.53;;;-0.10;99.90;;;;;;486530;244;27474;-76
2023/02/07 01:32:35;;;;;;;7.82;5.65;;;-0.10;99.90;;;;;;486517;244;27521;-75
2023/02/07 01:34:36;;;;;;;7.72;5.35;;;-0.10;99.90;;;;;;486518;244;27438;-76
2023/02/07 01:36:37;;;;;;;8.20;5.93;;;-0.10;99.90;;;;;;486410;244;27437;-76
2023/02/07 01:38:39;;;;;;;7.05;5.22;;;-0.10;99.90;;;;;;486513;244;27895;-76
2023/02/07 01:40:40;;;;;;;6.50;5.20;;;-0.10;99.90;;;;;;486513;244;27921;-76
2023/02/07 01:42:41;;;;;;;6.87;5.07;;;-0.10;99.90;;;;;;486487;244;27969;-76
2023/02/07 01:44:42;;;;;;;8.80;5.35;;;-0.10;99.90;;;;;;486474;244;27521;-76
2023/02/07 01:46:44;;;;;;;7.20;5.20;;;-0.10;99.90;;;;;;486497;244;27482;-76
2023/02/07 01:48:45;;;;;;;6.65;5.57;;;-0.20;99.90;;;;;;486533;244;27409;-75
2023/02/07 01:50:46;;;;;;;7.85;5.07;;;-0.20;99.90;;;;;;486501;244;27571;-76
2023/02/07 01:52:47;;;;;;;8.68;6.10;;;-0.20;99.90;;;;;;486497;244;27422;-76
2023/02/07 01:54:49;;;;;;;8.63;5.03;;;-0.20;99.90;;;;;;486506;244;27446;-76
2023/02/07 01:56:50;;;;;;;10.05;5.90;;;-0.20;99.90;;;;;;486467;244;27488;-76
2023/02/07 01:58:51;;;;;;;16.10;5.20;;;-0.20;99.90;;;;;;486530;244;27874;-76
2023/02/07 02:00:52;;;;;;;7.32;4.97;;;-0.20;99.90;;;;;;486517;244;27966;-76
2023/02/07 02:02:54;;;;;;;7.62;5.10;;;-0.20;99.90;;;;;;486514;244;27411;-76
2023/02/07 02:04:55;;;;;;;6.80;5.72;;;-0.30;99.90;;;;;;486354;244;27465;-76
2023/02/07 02:06:56;;;;;;;8.68;5.60;;;-0.30;99.90;;;;;;486498;244;27494;-76
2023/02/07 02:08:57;;;;;;;8.73;5.95;;;-0.30;99.90;;;;;;486512;244;27505;-76
2023/02/07 02:10:59;;;;;;;8.88;6.05;;;-0.30;99.90;;;;;;486557;244;27527;-76
2023/02/07 02:13:00;;;;;;;12.20;5.70;;;-0.30;99.90;;;;;;486516;244;27498;-76
2023/02/07 02:15:01;;;;;;;6.60;4.93;;;-0.40;99.90;;;;;;486519;244;27534;-76
2023/02/07 02:17:02;;;;;;;6.10;5.50;;;-0.40;99.90;;;;;;486525;244;28092;-76
2023/02/07 02:19:04;;;;;;;5.85;5.05;;;-0.50;99.90;;;;;;486504;244;27926;-76
2023/02/07 02:21:05;;;;;;;8.30;5.72;;;-0.40;99.90;;;;;;486513;244;27944;-75
2023/02/07 02:23:06;;;;;;;8.32;6.72;;;-0.50;99.90;;;;;;486468;244;27466;-76
2023/02/07 02:25:07;;;;;;;6.60;5.62;;;-0.40;99.90;;;;;;486514;244;27441;-76
2023/02/07 02:27:09;;;;;;;8.88;5.45;;;-0.40;99.90;;;;;;486540;244;27468;-76
2023/02/07 02:29:10;;;;;;;7.68;5.65;;;-0.40;99.90;;;;;;486304;244;27463;-76
2023/02/07 02:31:11;;;;;;;7.60;5.75;;;-0.40;99.90;;;;;;486525;244;27496;-76
2023/02/07 02:33:12;;;;;;;6.70;5.30;;;-0.50;99.90;;;;;;486484;244;27507;-76
2023/02/07 02:35:14;;;;;;;6.57;5.53;;;-0.40;99.90;;;;;;486436;244;27579;-76
2023/02/07 02:37:15;;;;;;;6.57;5.37;;;-0.40;99.90;;;;;;486525;244;27931;-77
2023/02/07 02:39:16;;;;;;;6.97;5.45;;;-0.50;99.90;;;;;;486533;244;27866;-76
2023/02/07 02:41:17;;;;;;;7.40;5.50;;;-0.50;99.90;;;;;;486489;244;27925;-77
2023/02/07 02:43:19;;;;;;;7.72;6.00;;;-0.50;99.90;;;;;;486479;244;27387;-76
2023/02/07 02:45:20;;;;;;;11.27;5.35;;;-0.50;99.90;;;;;;486487;244;27442;-76
2023/02/07 02:47:21;;;;;;;7.12;6.05;;;-0.50;99.90;;;;;;486549;244;27445;-76
2023/02/07 02:49:22;;;;;;;7.60;5.65;;;-0.50;99.90;;;;;;486489;244;27450;-76
2023/02/07 02:51:24;;;;;;;6.72;5.97;;;-0.60;99.90;;;;;;486514;244;27462;-76
2023/02/07 02:53:25;;;;;;;8.30;6.22;;;-0.60;99.90;;;;;;486492;244;27414;-76
2023/02/07 02:55:26;;;;;;;7.57;5.60;;;-0.60;99.90;;;;;;486536;244;27442;-76
2023/02/07 02:57:29;;;;;;;6.45;5.75;;;-0.60;99.90;;;;;;486555;244;28005;-76
2023/02/07 02:59:29;;;;;;;8.18;5.97;;;-0.60;99.90;;;;;;486451;244;29060;-76
2023/02/07 03:01:32;;;;;;;8.52;6.10;;;-0.60;99.90;;;;;;486540;244;27522;-75
2023/02/07 03:03:31;;;;;;;7.78;5.68;;;-0.60;99.90;;;;;;486361;244;27414;-76
2023/02/07 03:05:33;;;;;;;10.73;5.87;;;-0.60;99.90;;;;;;486548;244;27462;-76
2023/02/07 03:07:34;;;;;;;8.65;5.90;;;-0.60;99.90;;;;;;486541;244;27452;-75
2023/02/07 03:09:35;;;;;;;7.78;5.93;;;-0.60;99.90;;;;;;486547;244;27521;-76
2023/02/07 03:11:36;;;;;;;8.25;6.30;;;-0.60;99.90;;;;;;486522;244;27474;-76
2023/02/07 03:13:38;;;;;;;9.35;6.70;;;-0.60;99.90;;;;;;486497;244;27407;-76
2023/02/07 03:15:39;;;;;;;10.98;6.70;;;-0.60;99.90;;;;;;486569;244;28111;-76
2023/02/07 03:17:40;;;;;;;6.80;6.10;;;-0.60;99.90;;;;;;486536;244;27921;-76
2023/02/07 03:19:41;;;;;;;8.00;6.40;;;-0.60;99.90;;;;;;486520;244;27865;-76
2023/02/07 03:21:43;;;;;;;9.65;6.65;;;-0.70;99.90;;;;;;486509;244;27522;-75
2023/02/07 03:23:44;;;;;;;10.80;7.22;;;-0.70;99.90;;;;;;486531;244;27494;-75
2023/02/07 03:25:45;;;;;;;6.78;6.07;;;-0.70;99.90;;;;;;486550;244;27479;-76
2023/02/07 03:27:46;;;;;;;8.25;7.37;;;-0.70;99.90;;;;;;486540;243;27558;-75
2023/02/07 03:29:48;;;;;;;9.02;6.97;;;-0.70;99.90;;;;;;486550;244;27410;-76
2023/02/07 03:31:49;;;;;;;7.75;6.75;;;-0.70;99.90;;;;;;486494;244;27474;-76
2023/02/07 03:33:50;;;;;;;9.23;7.15;;;-0.80;99.90;;;;;;486471;244;27478;-76
2023/02/07 03:35:51;;;;;;;8.60;7.22;;;-0.80;99.90;;;;;;486541;243;27877;-76
2023/02/07 03:37:53;;;;;;;9.48;7.22;;;-0.70;99.90;;;;;;486559;244;27969;-76
2023/02/07 03:39:54;;;;;;;11.07;7.55;;;-0.80;99.90;;;;;;486512;244;27486;-76
2023/02/07 03:41:55;;;;;;;10.50;6.95;;;-0.80;99.90;;;;;;486520;244;27461;-76
2023/02/07 03:43:56;;;;;;;9.38;7.03;;;-0.80;99.90;;;;;;486323;243;27509;-76
2023/02/07 03:45:58;;;;;;;8.05;6.70;;;-0.90;99.90;;;;;;486557;244;27506;-75
2023/02/07 03:47:59;;;;;;;9.50;6.60;;;-0.90;99.90;;;;;;486543;244;27450;-76
2023/02/07 03:50:00;;;;;;;8.43;7.12;;;-0.90;99.90;;;;;;486368;244;27411;-76
2023/02/07 03:52:01;;;;;;;8.68;6.93;;;-0.90;99.90;;;;;;486535;244;27473;-76
2023/02/07 03:54:03;;;;;;;8.73;7.30;;;-0.90;99.90;;;;;;486574;244;28077;-77
2023/02/07 03:56:04;;;;;;;7.12;6.43;;;-1.00;99.90;;;;;;486565;244;27866;-76
2023/02/07 03:58:06;;;;;;;9.35;6.87;;;-1.00;99.90;;;;;;486568;244;29029;-75
2023/02/07 04:00:06;;;;;;;8.95;7.30;;;-1.00;99.90;;;;;;486512;244;27470;-76
2023/02/07 04:02:08;;;;;;;8.80;6.85;;;-1.00;99.90;;;;;;486530;244;27449;-76
2023/02/07 04:04:09;;;;;;;11.48;7.03;;;-1.00;99.90;;;;;;486534;244;27449;-76
2023/02/07 04:06:10;;;;;;;8.98;6.97;;;-1.10;99.90;;;;;;486546;244;27505;-76
2023/02/07 04:08:11;;;;;;;8.73;6.55;;;-1.00;99.90;;;;;;486501;244;27446;-75
2023/02/07 04:10:13;;;;;;;8.55;6.00;;;-1.10;99.90;;;;;;486501;244;27442;-75
2023/02/07 04:12:14;;;;;;;9.20;7.32;;;-1.10;99.90;;;;;;486520;244;28010;-76
2023/02/07 04:14:15;;;;;;;8.40;6.10;;;-1.20;99.90;;;;;;486529;244;28128;-77
2023/02/07 04:16:16;;;;;;;8.57;6.60;;;-1.20;99.90;;;;;;486551;244;27865;-76
2023/02/07 04:18:18;;;;;;;9.18;7.03;;;-1.20;99.90;;;;;;486522;244;27423;-76
2023/02/07 04:20:19;;;;;;;11.10;6.80;;;-1.30;99.90;;;;;;486524;244;27407;-76
2023/02/07 04:22:20;;;;;;;9.02;7.47;;;-1.30;99.90;;;;;;486492;244;27454;-77
2023/02/07 04:24:21;;;;;;;11.60;8.38;;;-1.30;99.90;;;;;;486445;244;27773;-76
2023/02/07 04:26:23;;;;;;;10.27;8.13;;;-1.30;99.90;;;;;;486539;244;27538;-76
2023/02/07 04:28:24;;;;;;;11.12;8.02;;;-1.30;99.90;;;;;;486511;244;27454;-76
2023/02/07 04:30:26;;;;;;;10.75;7.45;;;-1.30;99.90;;;;;;486508;244;27863;-76
2023/02/07 04:32:26;;;;;;;10.20;7.15;;;-1.40;99.90;;;;;;486472;244;29009;-76
2023/02/07 04:34:28;;;;;;;11.07;8.85;;;-1.40;99.90;;;;;;486553;244;27523;-76
2023/02/07 04:36:30;;;;;;;10.40;7.85;;;-1.40;99.90;;;;;;486354;244;27549;-76
2023/02/07 04:38:30;;;;;;;10.80;7.45;;;-1.40;99.90;;;;;;486529;244;27521;-76
2023/02/07 04:40:31;;;;;;;9.98;7.40;;;-1.40;99.90;;;;;;486556;244;27492;-75
2023/02/07 04:42:33;;;;;;;12.15;7.57;;;-1.50;99.90;;;;;;486526;244;27545;-76
2023/02/07 04:44:34;;;;;;;10.10;8.05;;;-1.40;99.90;;;;;;486570;244;27450;-76
2023/02/07 04:46:35;;;;;;;10.02;7.95;;;-1.50;99.90;;;;;;486497;244;27875;-75
2023/02/07 04:48:37;;;;;;;10.27;8.02;;;-1.40;99.90;;;;;;486533;243;27972;-76
2023/02/07 04:50:38;;;;;;;12.20;8.27;;;-1.50;99.90;;;;;;486524;244;27401;-76
2023/02/07 04:52:40;;;;;;;12.43;8.13;;;-1.50;99.90;;;;;;486439;244;27434;-76
2023/02/07 04:54:40;;;;;;;10.07;7.87;;;-1.50;99.90;;;;;;486507;244;27453;-76
2023/02/07 04:56:42;;;;;;;12.02;8.02;;;-1.60;99.90;;;;;;486551;244;27415;-75
2023/02/07 04:58:43;;;;;;;13.07;8.38;;;-1.60;99.90;;;;;;486531;244;27529;-76
2023/02/07 05:00:44;;;;;;;10.68;8.10;;;-1.60;99.90;;;;;;486529;244;27410;-76
2023/02/07 05:02:45;;;;;;;10.02;8.10;;;-1.60;99.90;;;;;;486516;244;27926;-76
2023/02/07 05:04:47;;;;;;;14.48;9.05;;;-1.60;99.90;;;;;;486518;244;28780;-76
2023/02/07 05:06:48;;;;;;;10.38;8.85;;;-1.70;99.90;;;;;;486557;244;27407;-76
2023/02/07 05:08:49;;;;;;;12.95;8.90;;;-1.70;99.90;;;;;;486571;244;27565;-76
2023/02/07 05:10:50;;;;;;;16.87;9.90;;;-1.80;99.90;;;;;;486516;244;27513;-76
2023/02/07 05:12:52;;;;;;;15.65;9.52;;;-1.70;99.90;;;;;;486540;244;27442;-76
2023/02/07 05:14:53;;;;;;;13.55;9.40;;;-1.70;99.90;;;;;;486532;244;27537;-76
2023/02/07 05:16:54;;;;;;;14.02;9.70;;;-1.80;99.90;;;;;;486547;244;27427;-75
2023/02/07 05:18:55;;;;;;;15.45;10.65;;;-1.80;99.90;;;;;;486587;244;27942;-76
2023/02/07 05:20:57;;;;;;;12.50;9.30;;;-1.80;99.90;;;;;;486556;244;27401;-76
2023/02/07 05:22:58;;;;;;;12.35;9.10;;;-1.80;99.90;;;;;;486492;244;27547;-75
2023/02/07 05:24:59;;;;;;;18.40;10.48;;;-1.80;99.90;;;;;;486522;244;27437;-76
2023/02/07 05:27:00;;;;;;;14.10;9.95;;;-1.80;99.90;;;;;;486550;244;27520;-76
2023/02/07 05:29:02;;;;;;;14.05;9.73;;;-1.80;99.90;;;;;;486539;244;27510;-77
2023/02/07 05:31:03;;;;;;;16.05;10.80;;;-1.90;99.90;;;;;;486507;244;27430;-75
2023/02/07 05:33:07;;;;;;;14.23;10.65;;;-1.90;99.90;;;;;;486510;244;27972;-75
2023/02/07 05:35:08;;;;;;;16.17;10.63;;;-1.80;99.90;;;;;;486517;244;27450;-76
2023/02/07 05:37:09;;;;;;;14.63;10.40;;;-1.90;99.90;;;;;;486498;244;27405;-76
2023/02/07 05:39:11;;;;;;;15.23;10.77;;;-1.90;99.90;;;;;;486551;244;28031;-75
2023/02/07 05:41:12;;;;;;;17.20;11.68;;;-2.00;99.90;;;;;;486539;244;29009;-76
2023/02/07 05:43:13;;;;;;;18.50;12.13;;;-2.00;99.90;;;;;;486505;244;27438;-76
2023/02/07 05:45:14;;;;;;;15.07;10.98;;;-2.00;99.90;;;;;;486480;244;27529;-76
2023/02/07 05:47:16;;;;;;;17.00;11.30;;;-2.00;99.90;;;;;;486517;244;27489;-76
2023/02/07 05:49:17;;;;;;;18.05;10.13;;;-2.00;99.90;;;;;;486563;244;27614;-76
2023/02/07 05:51:18;;;;;;;13.45;10.65;;;-2.00;99.90;;;;;;486524;244;27962;-76
2023/02/07 05:53:19;;;;;;;12.95;10.30;;;-2.00;99.90;;;;;;486503;244;27870;-76
2023/02/07 05:55:21;;;;;;;16.67;11.18;;;-2.10;99.90;;;;;;486479;244;27450;-76
2023/02/07 05:57:22;;;;;;;15.70;10.13;;;-2.10;99.90;;;;;;486510;244;27444;-76
2023/02/07 05:59:23;;;;;;;18.37;11.73;;;-2.10;99.90;;;;;;486556;244;27576;-76
2023/02/07 06:01:25;;;;;;;13.15;10.80;;;-2.10;99.90;;;;;;486562;244;27470;-75
2023/02/07 06:03:26;;;;;;;15.68;11.40;;;-2.10;99.90;;;;;;486525;244;27871;-76
2023/02/07 06:05:30;;;;;;;17.83;11.70;;;-2.10;99.90;;;;;;486519;244;27986;-76
2023/02/07 06:07:28;;;;;;;16.30;11.77;;;-2.10;99.90;;;;;;486482;244;27439;-76
2023/02/07 06:09:30;;;;;;;20.00;12.18;;;-2.20;99.90;;;;;;486526;244;27407;-75
2023/02/07 06:11:31;;;;;;;16.60;12.20;;;-2.20;99.90;;;;;;486547;244;27546;-76
2023/02/07 06:13:32;;;;;;;20.65;13.70;;;-2.20;99.90;;;;;;486516;244;27169;-75
2023/02/07 06:15:33;;;;;;;16.50;11.15;;;-2.20;99.90;;;;;;486470;244;27977;-76
2023/02/07 06:17:35;;;;;;;18.08;12.32;;;-2.20;99.90;;;;;;486523;244;28752;-76
2023/02/07 06:19:36;;;;;;;17.17;12.85;;;-2.20;99.90;;;;;;486546;244;27413;-76
2023/02/07 06:21:37;;;;;;;18.50;12.68;;;-2.20;99.90;;;;;;486541;244;27472;-76
2023/02/07 06:23:39;;;;;;;19.05;13.62;;;-2.20;99.90;;;;;;486537;244;27427;-76
2023/02/07 06:25:40;;;;;;;19.30;14.07;;;-2.30;99.90;;;;;;486533;244;27478;-75
2023/02/07 06:27:41;;;;;;;17.08;12.45;;;-2.30;99.90;;;;;;486526;244;28821;-75
2023/02/07 06:29:42;;;;;;;22.02;14.18;;;-2.30;99.90;;;;;;486545;244;29055;-76
2023/02/07 06:31:43;;;;;;;16.20;12.98;;;-2.30;99.90;;;;;;486597;244;27434;-75
2023/02/07 06:33:45;;;;;;;17.75;12.70;;;-2.40;99.90;;;;;;486604;244;27288;-76
2023/02/07 06:35:50;;;;;;;27.17;15.00;;;-2.40;99.90;;;;;;486587;244;27457;-76
2023/02/07 06:37:50;;;;;;;19.58;13.10;;;-2.40;99.90;;;;;;486611;244;27355;-76
2023/02/07 06:39:52;;;;;;;19.23;13.68;;;-2.40;99.90;;;;;;486608;244;27319;-76
2023/02/07 06:41:53;;;;;;;22.52;14.05;;;-2.40;99.90;;;;;;486600;244;27866;-79
2023/02/07 06:43:54;;;;;;;25.17;14.07;;;-2.50;99.90;;;;;;486577;244;27561;-75
2023/02/07 06:45:55;;;;;;;18.08;12.63;;;-2.50;99.90;;;;;;486577;244;27855;-76
2023/02/07 06:47:57;;;;;;;19.50;13.55;;;-2.50;99.90;;;;;;486616;244;27884;-76
2023/02/07 06:49:58;;;;;;;22.90;14.87;;;-2.50;99.90;;;;;;486583;244;27425;-75
2023/02/07 06:51:59;;;;;;;21.10;14.00;;;-2.50;99.90;;;;;;486582;244;27406;-76
2023/02/07 06:54:02;;;;;;;20.92;14.13;;;-2.50;99.90;;;;;;486546;244;27505;-75
2023/02/07 06:56:02;;;;;;;18.98;13.20;;;-2.50;99.90;;;;;;486515;244;27381;-76
2023/02/07 06:58:03;;;;;;;21.58;13.88;;;-2.60;99.90;;;;;;486559;244;27838;-75
2023/02/07 07:00:04;;;;;;;21.48;14.60;;;-2.60;99.90;;;;;;486532;244;27818;-75
2023/02/07 07:02:05;;;;;;;24.23;15.20;;;-2.60;99.90;;;;;;486528;244;27407;-76
2023/02/07 07:04:07;;;;;;;23.23;14.60;;;-2.60;99.90;;;;;;486491;244;27356;-76
2023/02/07 07:06:08;;;;;;;17.30;12.98;;;-2.60;99.90;;;;;;486505;244;27366;-76
2023/02/07 07:08:09;;;;;;;18.75;13.65;;;-2.60;99.90;;;;;;486579;244;27893;-75
2023/02/07 07:10:11;;;;;;;24.67;14.48;;;-2.60;99.90;;;;;;486554;244;27423;-75
2023/02/07 07:12:12;;;;;;;23.40;15.13;;;-2.60;99.90;;;;;;486565;244;27482;-76
2023/02/07 07:14:13;;;;;;;20.02;14.13;;;-2.60;99.90;;;;;;486528;244;27438;-75
2023/02/07 07:16:14;;;;;;;17.87;12.88;;;-2.60;99.90;;;;;;486544;244;27812;-76
2023/02/07 07:18:16;;;;;;;19.85;13.95;;;-2.50;99.90;;;;;;486585;244;27388;-75
2023/02/07 07:20:17;;;;;;;19.60;13.98;;;-2.60;99.90;;;;;;486576;243;28065;-76
2023/02/07 07:22:19;;;;;;;21.55;14.90;;;-2.60;99.90;;;;;;486531;244;29060;-75
2023/02/07 07:24:20;;;;;;;19.10;14.50;;;-2.60;99.90;;;;;;486518;244;27545;-75
2023/02/07 07:26:21;;;;;;;19.77;14.40;;;-2.60;99.90;;;;;;486553;244;27369;-75
2023/02/07 07:28:22;;;;;;;25.42;15.23;;;-2.60;99.90;;;;;;486578;244;27480;-76
2023/02/07 07:30:23;;;;;;;20.60;14.45;;;-2.60;99.90;;;;;;486594;244;27371;-78
2023/02/07 07:32:24;;;;;;;23.87;14.30;;;-2.60;99.90;;;;;;486573;244;28016;-76
2023/02/07 07:34:26;;;;;;;21.10;13.80;;;-2.60;99.90;;;;;;486567;244;27925;-76
2023/02/07 07:36:27;;;;;;;21.10;12.55;;;-2.50;99.90;;;;;;486528;244;27414;-75
2023/02/07 07:38:28;;;;;;;20.17;13.35;;;-2.50;99.90;;;;;;486559;244;27363;-76
2023/02/07 07:40:29;;;;;;;18.62;13.00;;;-2.50;99.90;;;;;;486602;244;27569;-75
2023/02/07 07:42:31;;;;;;;18.83;13.65;;;-2.50;99.90;;;;;;486568;244;27421;-75
2023/02/07 07:44:32;;;;;;;27.62;13.73;;;-2.50;99.90;;;;;;486531;244;27927;-75
2023/02/07 07:46:33;;;;;;;18.45;12.88;;;-2.40;99.90;;;;;;486527;244;28922;-75
2023/02/07 07:48:34;;;;;;;21.40;15.43;;;-2.50;99.90;;;;;;486558;244;27399;-76
2023/02/07 07:50:36;;;;;;;18.65;13.15;;;-2.40;99.90;;;;;;486580;244;27437;-76
2023/02/07 07:52:37;;;;;;;20.70;13.02;;;-2.40;99.90;;;;;;486568;244;27406;-76
2023/02/07 07:54:38;;;;;;;20.75;13.65;;;-2.40;99.90;;;;;;486562;244;27334;-76
2023/02/07 07:56:39;;;;;;;18.58;12.95;;;-2.40;99.90;;;;;;486569;244;27323;-75
2023/02/07 07:58:41;;;;;;;21.92;14.15;;;-2.30;99.90;;;;;;486518;244;27958;-75
2023/02/07 08:00:42;;;;;;;18.35;13.55;;;-2.30;99.90;;;;;;486381;244;27528;-76
2023/02/07 08:02:43;;;;;;;20.95;12.98;;;-2.30;99.90;;;;;;486574;244;27477;-76
2023/02/07 08:04:45;;;;;;;18.95;12.20;;;-2.30;99.90;;;;;;486532;244;27553;-76
2023/02/07 08:06:46;;;;;;;19.35;13.02;;;-2.20;99.90;;;;;;486523;244;27094;-75
2023/02/07 08:08:47;;;;;;;18.37;12.85;;;-2.20;99.90;;;;;;486504;244;27525;-75
2023/02/07 08:10:48;;;;;;;18.15;13.00;;;-2.20;99.90;;;;;;486552;244;27757;-76
2023/02/07 08:12:50;;;;;;;17.23;11.25;;;-2.10;99.90;;;;;;486542;244;27958;-75
2023/02/07 08:14:51;;;;;;;16.40;11.55;;;-2.10;99.90;;;;;;486533;244;27549;-76
2023/02/07 08:16:52;;;;;;;17.52;11.63;;;-2.10;99.90;;;;;;486500;244;27752;-75
2023/02/07 08:18:53;;;;;;;14.73;11.12;;;-2.00;99.90;;;;;;486514;244;27572;-76
2023/02/07 08:20:55;;;;;;;16.50;11.75;;;-2.00;99.90;;;;;;486527;244;27497;-75
2023/02/07 08:22:56;;;;;;;15.45;11.70;;;-2.00;99.90;;;;;;486534;244;27889;-76
2023/02/07 08:24:57;;;;;;;20.33;10.95;;;-1.90;99.90;;;;;;486533;244;27927;-75
2023/02/07 08:26:58;;;;;;;18.33;11.77;;;-1.80;99.90;;;;;;486514;244;27488;-75
2023/02/07 08:29:00;;;;;;;18.12;11.35;;;-1.90;99.90;;;;;;486515;244;27557;-76
2023/02/07 08:31:01;;;;;;;14.13;10.95;;;-1.80;99.90;;;;;;486535;244;27406;-75
2023/02/07 08:33:02;;;;;;;20.77;11.90;;;-1.70;99.90;;;;;;486559;244;27414;-76
2023/02/07 08:35:04;;;;;;;15.77;10.75;;;-1.70;99.90;;;;;;486532;244;27942;-76
2023/02/07 08:37:05;;;;;;;14.77;10.45;;;-1.70;99.90;;;;;;486505;244;29028;-76
2023/02/07 08:39:06;;;;;;;15.88;10.38;;;-1.70;99.90;;;;;;486519;244;27507;-76
2023/02/07 08:41:07;;;;;;;16.33;11.40;;;-1.70;99.90;;;;;;486482;244;27414;-75
2023/02/07 08:43:11;;;;;;;13.07;10.35;;;-1.60;99.90;;;;;;486532;244;27521;-76
2023/02/07 08:45:10;;;;;;;17.58;10.90;;;-1.60;99.90;;;;;;486501;244;27426;-75
2023/02/07 08:47:11;;;;;;;19.67;10.27;;;-1.50;99.90;;;;;;486520;244;27859;-76
2023/02/07 08:49:12;;;;;;;15.98;10.98;;;-1.50;99.90;;;;;;486503;244;27988;-76
2023/02/07 08:51:14;;;;;;;14.20;10.70;;;-1.40;99.90;;;;;;486508;244;27423;-76
2023/02/07 08:53:15;;;;;;;16.95;11.30;;;-1.40;99.90;;;;;;486518;244;27473;-76
2023/02/07 08:55:16;;;;;;;15.73;11.27;;;-1.30;99.90;;;;;;486535;244;27482;-74
2023/02/07 08:57:21;;;;;;;14.70;9.52;;;-1.30;99.90;;;;;;486503;244;27491;-76
2023/02/07 08:59:19;;;;;;;14.00;10.63;;;-1.20;99.90;;;;;;486204;244;27458;-76
2023/02/07 09:01:20;;;;;;;13.35;9.70;;;-1.20;99.90;;;;;;486511;244;28619;-76
2023/02/07 09:03:21;;;;;;;13.70;10.05;;;-1.20;99.90;;;;;;486577;244;27953;-76
2023/02/07 09:05:22;;;;;;;12.57;9.52;;;-1.20;99.90;;;;;;486563;244;27486;-77
2023/02/07 09:07:24;;;;;;;13.95;10.30;;;-1.10;99.90;;;;;;486530;244;27407;-75
2023/02/07 09:09:25;;;;;;;14.23;10.48;;;-1.10;99.90;;;;;;486506;244;27438;-76
2023/02/07 09:11:26;;;;;;;14.60;10.85;;;-1.00;99.90;;;;;;486526;244;27422;-77
2023/02/07 09:13:27;;;;;;;11.65;9.48;;;-1.00;99.90;;;;;;486561;244;28014;-75
2023/02/07 09:15:29;;;;;;;15.20;10.55;;;-1.00;99.90;;;;;;486577;244;27933;-76
2023/02/07 09:17:30;;;;;;;13.50;10.15;;;-1.00;99.90;;;;;;486526;244;27420;-76
2023/02/07 09:19:31;;;;;;;15.98;9.80;;;-0.90;99.90;;;;;;486505;244;27426;-76
2023/02/07 09:21:32;;;;;;;15.45;9.65;;;-1.00;99.90;;;;;;486523;244;27430;-76
2023/02/07 09:23:34;;;;;;;15.85;9.48;;;-1.00;99.90;;;;;;486519;244;27421;-76
2023/02/07 09:25:35;;;;;;;14.20;9.38;;;-0.90;99.90;;;;;;486530;244;27462;-76
2023/02/07 09:27:36;;;;;;;16.23;10.32;;;-0.80;99.90;;;;;;486521;244;28037;-76
2023/02/07 09:29:37;;;;;;;19.98;11.10;;;-0.80;99.90;;;;;;486482;244;29127;-76
2023/02/07 09:31:39;;;;;;;15.32;10.77;;;-0.80;99.90;;;;;;486525;244;27438;-76
2023/02/07 09:33:40;;;;;;;15.57;10.93;;;-0.80;99.90;;;;;;486532;244;27446;-76
2023/02/07 09:35:42;;;;;;;14.50;10.50;;;-0.80;99.90;;;;;;486523;244;27581;-76
2023/02/07 09:37:42;;;;;;;17.70;11.65;;;-0.70;99.90;;;;;;486480;244;27458;-76
2023/02/07 09:39:44;;;;;;;18.52;10.45;;;-0.70;99.90;;;;;;486487;243;27426;-76
2023/02/07 09:41:45;;;;;;;14.05;10.15;;;-0.70;99.90;;;;;;486530;244;28014;-76
2023/02/07 09:43:46;;;;;;;18.10;10.80;;;-0.60;99.90;;;;;;486542;244;27469;-76
2023/02/07 09:45:47;;;;;;;14.55;10.32;;;-0.50;99.90;;;;;;486501;244;27462;-76
2023/02/07 09:47:49;;;;;;;13.00;10.52;;;-0.60;99.90;;;;;;486515;244;27486;-76
2023/02/07 09:49:50;;;;;;;17.77;11.23;;;-0.60;99.90;;;;;;486471;244;27569;-76
2023/02/07 09:51:51;;;;;;;17.73;10.13;;;-0.60;99.90;;;;;;486555;243;27462;-76
2023/02/07 09:53:53;;;;;;;12.00;9.25;;;-0.60;99.90;;;;;;486526;244;27875;-76
2023/02/07 09:55:54;;;;;;;15.60;10.55;;;-0.50;99.90;;;;;;486468;244;29089;-76
2023/02/07 09:57:55;;;;;;;13.75;9.55;;;-0.50;99.90;;;;;;486489;244;27526;-76
2023/02/07 09:59:56;;;;;;;13.50;10.07;;;-0.50;99.90;;;;;;486484;244;27454;-76
2023/02/07 10:01:58;;;;;;;16.30;9.90;;;-0.40;99.90;;;;;;486541;244;27907;-76
2023/02/07 10:03:59;;;;;;;18.08;9.93;;;-0.40;99.90;;;;;;486545;244;27485;-76
2023/02/07 10:06:00;;;;;;;15.80;10.73;;;-0.40;99.90;;;;;;486393;244;27450;-76
2023/02/07 10:08:02;;;;;;;15.32;10.93;;;-0.30;99.90;;;;;;486478;244;27939;-76
2023/02/07 10:10:03;;;;;;;12.98;9.02;;;-0.20;99.90;;;;;;486464;244;27916;-76
2023/02/07 10:12:04;;;;;;;13.02;9.73;;;-0.20;99.90;;;;;;486555;244;27434;-76
2023/02/07 10:14:06;;;;;;;13.50;10.20;;;-0.20;99.90;;;;;;486533;244;27540;-75
2023/02/07 10:16:06;;;;;;;15.02;9.75;;;-0.20;99.90;;;;;;486497;244;27466;-77
2023/02/07 10:18:08;;;;;;;12.35;9.20;;;-0.10;99.90;;;;;;486506;244;27410;-76
2023/02/07 10:20:09;;;;;;;14.40;10.00;;;-0.10;99.90;;;;;;486495;244;27482;-76
2023/02/07 10:22:10;;;;;;;13.80;9.98;;;0.00;99.90;;;;;;486546;244;28062;-76